createdAt,value
2022-08-28T00:00:15.873Z,5.70
2022-08-28T00:02:43.125Z,5.00
2022-08-28T00:05:11.592Z,6.18
2022-08-28T00:07:38.600Z,5.72
2022-08-28T00:10:07.500Z,6.32
2022-08-28T00:12:35.447Z,6.37
2022-08-28T00:15:03.039Z,6.85
2022-08-28T00:17:29.506Z,5.63
2022-08-28T00:19:55.972Z,6.43
2022-08-28T00:22:22.656Z,6.70
2022-08-28T00:24:49.363Z,5.73
2022-08-28T00:27:34.557Z,5.93
2022-08-28T00:30:01.050Z,6.57
2022-08-28T00:32:28.334Z,6.00
2022-08-28T00:34:54.856Z,6.43
2022-08-28T00:37:24.618Z,6.33
2022-08-28T00:39:51.484Z,6.70
2022-08-28T00:42:18.362Z,6.60
2022-08-28T00:44:45.413Z,6.40
2022-08-28T00:47:12.574Z,6.05
2022-08-28T00:49:47.794Z,5.53
2022-08-28T00:52:17.322Z,5.65
2022-08-28T00:55:08.583Z,6.30
2022-08-28T00:57:40.323Z,5.95
2022-08-28T01:00:09.638Z,5.88
2022-08-28T01:02:36.334Z,5.80
2022-08-28T01:05:03.295Z,5.50
2022-08-28T01:07:30.031Z,6.05
2022-08-28T01:09:57.101Z,6.40
2022-08-28T01:12:28.180Z,7.00
2022-08-28T01:14:59.899Z,5.57
2022-08-28T01:17:29.300Z,6.43
2022-08-28T01:20:00.596Z,6.15
2022-08-28T01:22:44.305Z,6.00
2022-08-28T01:25:14.398Z,6.00
2022-08-28T01:27:44.294Z,5.87
2022-08-28T01:30:14.240Z,6.30
2022-08-28T01:32:45.483Z,5.65
2022-08-28T01:35:15.864Z,7.82
2022-08-28T01:37:43.854Z,6.30
2022-08-28T01:40:12.654Z,5.87
2022-08-28T01:42:41.081Z,6.00
2022-08-28T01:45:11.128Z,6.57
2022-08-28T01:47:39.147Z,6.70
2022-08-28T01:50:07.463Z,5.82
2022-08-28T01:52:34.053Z,5.73
2022-08-28T01:55:00.542Z,6.45
2022-08-28T01:57:32.081Z,5.60
2022-08-28T01:59:58.546Z,5.70
2022-08-28T02:02:25.011Z,6.38
2022-08-28T02:04:52.591Z,5.63
2022-08-28T02:07:19.674Z,6.10
2022-08-28T02:09:46.275Z,6.25
2022-08-28T02:12:12.747Z,7.00
2022-08-28T02:14:39.437Z,6.10
2022-08-28T02:17:05.919Z,5.97
2022-08-28T02:19:32.520Z,6.47
2022-08-28T02:21:59.101Z,6.18
2022-08-28T02:24:25.666Z,6.75
2022-08-28T02:26:52.253Z,6.38
2022-08-28T02:29:18.845Z,6.10
2022-08-28T02:31:45.334Z,5.80
2022-08-28T02:34:11.805Z,5.97
2022-08-28T02:36:41.726Z,6.22
2022-08-28T02:39:09.033Z,5.50
2022-08-28T02:41:35.748Z,5.40
2022-08-28T02:44:02.449Z,6.10
2022-08-28T02:46:28.992Z,6.53
2022-08-28T02:48:56.229Z,6.97
2022-08-28T02:51:22.889Z,5.50
2022-08-28T02:53:50.467Z,6.37
2022-08-28T02:56:16.989Z,6.00
2022-08-28T02:58:43.874Z,6.43
2022-08-28T03:01:12.758Z,6.18
2022-08-28T03:03:40.929Z,6.60
2022-08-28T03:06:09.976Z,6.50
2022-08-28T03:08:36.648Z,6.88
2022-08-28T03:11:03.180Z,6.20
2022-08-28T03:13:30.220Z,6.55
2022-08-28T03:15:57.918Z,6.97
2022-08-28T03:18:26.671Z,5.60
2022-08-28T03:20:53.658Z,5.32
2022-08-28T03:23:28.869Z,5.00
2022-08-28T03:26:08.949Z,4.72
2022-08-28T03:28:47.396Z,4.95
2022-08-28T03:31:17.882Z,4.07
2022-08-28T03:33:45.931Z,4.43
2022-08-28T03:36:15.692Z,4.22
2022-08-28T03:38:42.498Z,4.43
2022-08-28T03:41:14.543Z,4.57
2022-08-28T03:43:41.522Z,4.70
2022-08-28T03:46:08.976Z,4.70
2022-08-28T03:48:37.634Z,5.15
2022-08-28T03:51:13.522Z,4.82
2022-08-28T03:53:43.286Z,4.97
2022-08-28T03:56:13.410Z,4.03
2022-08-28T03:58:40.842Z,4.55
2022-08-28T04:01:08.225Z,3.75
2022-08-28T04:03:34.879Z,4.07
2022-08-28T04:06:01.858Z,4.03
2022-08-28T04:08:29.360Z,4.33
2022-08-28T04:10:56.261Z,5.40
2022-08-28T04:13:23.351Z,4.72
2022-08-28T04:16:11.770Z,4.72
2022-08-28T04:18:40.610Z,5.60
2022-08-28T04:21:11.880Z,5.10
2022-08-28T04:23:40.491Z,5.07
2022-08-28T04:26:08.387Z,5.40
2022-08-28T04:28:35.427Z,4.55
2022-08-28T04:31:02.906Z,5.07
2022-08-28T04:33:30.751Z,4.70
2022-08-28T04:35:57.406Z,4.40
2022-08-28T04:38:23.971Z,6.03
2022-08-28T04:40:50.666Z,5.10
2022-08-28T04:43:17.163Z,5.90
2022-08-28T04:45:45.819Z,5.67
2022-08-28T04:48:14.082Z,5.50
2022-08-28T04:50:42.386Z,5.13
2022-08-28T04:53:08.954Z,5.70
2022-08-28T04:55:53.735Z,5.47
2022-08-28T04:58:23.839Z,4.90
2022-08-28T05:00:52.843Z,6.00
2022-08-28T05:03:20.029Z,6.15
2022-08-28T05:05:55.609Z,5.57
2022-08-28T05:08:26.840Z,5.68
2022-08-28T05:10:53.691Z,5.50
2022-08-28T05:13:21.024Z,6.03
2022-08-28T05:15:50.219Z,6.07
2022-08-28T05:18:18.444Z,5.50
2022-08-28T05:20:47.603Z,5.57
2022-08-28T05:23:15.721Z,5.33
2022-08-28T05:25:45.861Z,5.30
2022-08-28T05:28:12.875Z,5.18
2022-08-28T05:30:41.975Z,5.75
2022-08-28T05:33:10.158Z,5.53
2022-08-28T05:35:38.752Z,5.23
2022-08-28T05:38:05.598Z,4.60
2022-08-28T05:40:32.498Z,5.43
2022-08-28T05:42:59.137Z,5.15
2022-08-28T05:45:25.721Z,5.35
2022-08-28T05:47:52.211Z,5.40
2022-08-28T05:50:19.201Z,5.63
2022-08-28T05:52:45.709Z,5.15
2022-08-28T05:55:13.362Z,5.32
2022-08-28T05:57:41.070Z,5.53
2022-08-28T06:00:13.736Z,5.07
2022-08-28T06:02:42.013Z,5.25
2022-08-28T06:05:09.379Z,4.85
2022-08-28T06:07:40.957Z,5.15
2022-08-28T06:10:10.435Z,4.88
2022-08-28T06:12:37.704Z,4.30
2022-08-28T06:15:05.542Z,5.03
2022-08-28T06:17:32.090Z,5.10
2022-08-28T06:19:58.554Z,5.40
2022-08-28T06:22:25.048Z,5.47
2022-08-28T06:24:51.521Z,5.60
2022-08-28T06:27:18.057Z,5.53
2022-08-28T06:29:44.721Z,4.70
2022-08-28T06:32:11.385Z,4.35
2022-08-28T06:34:38.183Z,5.20
2022-08-28T06:37:04.829Z,5.13
2022-08-28T06:39:31.389Z,4.45
2022-08-28T06:41:57.934Z,5.13
2022-08-28T06:44:24.637Z,4.45
2022-08-28T06:46:53.918Z,4.40
2022-08-28T06:49:21.491Z,4.20
2022-08-28T06:51:48.545Z,4.18
2022-08-28T06:54:22.925Z,4.28
2022-08-28T06:56:50.995Z,4.28
2022-08-28T06:59:17.577Z,4.38
2022-08-28T07:01:44.090Z,4.37
2022-08-28T07:04:12.035Z,3.15
2022-08-28T07:06:41.724Z,3.53
2022-08-28T07:09:11.319Z,3.65
2022-08-28T07:11:39.531Z,3.63
2022-08-28T07:14:07.344Z,3.53
2022-08-28T07:16:38.395Z,3.90
2022-08-28T07:19:10.482Z,3.17
2022-08-28T07:21:39.479Z,3.13
2022-08-28T07:24:07.370Z,3.08
2022-08-28T07:26:35.575Z,2.93
2022-08-28T07:29:10.377Z,3.10
2022-08-28T07:31:43.986Z,3.05
2022-08-28T07:34:11.985Z,2.65
2022-08-28T07:36:38.964Z,2.60
2022-08-28T07:39:06.228Z,3.30
2022-08-28T07:41:35.682Z,2.50
2022-08-28T07:44:20.710Z,2.30
2022-08-28T07:46:47.274Z,2.13
2022-08-28T07:49:18.304Z,2.40
2022-08-28T07:51:46.971Z,2.50
2022-08-28T07:54:16.871Z,2.38
2022-08-28T07:56:44.758Z,2.38
2022-08-28T07:59:11.734Z,2.15
2022-08-28T08:01:42.737Z,2.22
2022-08-28T08:04:12.730Z,1.80
2022-08-28T08:06:41.526Z,1.90
2022-08-28T08:09:11.179Z,2.45
2022-08-28T08:11:37.899Z,2.15
2022-08-28T08:14:06.066Z,1.98
2022-08-28T08:16:35.587Z,2.60
2022-08-28T08:19:03.362Z,2.42
2022-08-28T08:21:30.692Z,2.00
2022-08-28T08:23:58.075Z,2.42
2022-08-28T08:26:28.189Z,1.95
2022-08-28T08:28:55.667Z,1.90
2022-08-28T08:31:26.622Z,2.08
2022-08-28T08:33:56.816Z,1.90
2022-08-28T08:36:25.554Z,2.00
2022-08-28T08:38:59.268Z,2.35
2022-08-28T08:41:48.088Z,1.87
2022-08-28T08:44:33.420Z,2.10
2022-08-28T08:47:09.578Z,1.52
2022-08-28T08:50:01.049Z,2.40
2022-08-28T08:53:02.544Z,1.80
2022-08-28T08:55:32.174Z,2.10
2022-08-28T08:58:05.075Z,1.70
2022-08-28T09:00:37.166Z,2.08
2022-08-28T09:03:15.237Z,2.03
2022-08-28T09:05:58.123Z,1.50
2022-08-28T09:08:39.998Z,1.40
2022-08-28T09:11:27.482Z,1.73
2022-08-28T09:14:08.362Z,1.83
2022-08-28T09:16:40.986Z,2.88
2022-08-28T09:19:11.365Z,1.55
2022-08-28T09:21:41.688Z,2.23
2022-08-28T09:24:28.404Z,1.52
2022-08-28T09:27:20.775Z,1.98
2022-08-28T09:29:59.711Z,1.83
2022-08-28T09:32:36.884Z,1.52
2022-08-28T09:35:12.052Z,1.60
2022-08-28T09:37:39.189Z,1.70
2022-08-28T09:40:47.594Z,1.40
2022-08-28T09:43:31.450Z,1.85
2022-08-28T09:46:20.062Z,1.30
2022-08-28T09:48:50.270Z,1.10
2022-08-28T09:51:23.105Z,1.30
2022-08-28T09:53:52.398Z,1.63
2022-08-28T09:56:35.092Z,2.22
2022-08-28T09:59:07.647Z,1.63
2022-08-28T10:01:44.757Z,1.30
2022-08-28T10:04:17.932Z,1.70
2022-08-28T10:07:06.681Z,1.30
2022-08-28T10:10:10.670Z,1.50
2022-08-28T10:13:02.670Z,1.38
2022-08-28T10:15:43.302Z,1.37
2022-08-28T10:18:17.455Z,1.10
2022-08-28T10:21:05.114Z,1.25
2022-08-28T10:23:34.597Z,1.30
2022-08-28T10:26:24.162Z,1.20
2022-08-28T10:29:02.482Z,1.13
2022-08-28T10:31:36.173Z,1.52
2022-08-28T10:34:02.604Z,1.45
2022-08-28T10:36:34.629Z,1.20
2022-08-28T10:39:13.051Z,1.40
2022-08-28T10:41:48.751Z,1.50
2022-08-28T10:44:23.519Z,1.60
2022-08-28T10:46:55.605Z,1.60
2022-08-28T10:49:44.191Z,1.38
2022-08-28T10:52:48.012Z,1.65
2022-08-28T10:55:23.629Z,1.33
2022-08-28T10:57:57.948Z,1.70
2022-08-28T11:00:27.784Z,1.58
2022-08-28T11:02:58.288Z,1.40
2022-08-28T11:05:31.889Z,1.60
2022-08-28T11:08:06.732Z,1.40
2022-08-28T11:10:34.774Z,2.75
2022-08-28T11:13:02.945Z,1.50
2022-08-28T11:15:36.842Z,1.40
2022-08-28T11:18:15.826Z,1.42
2022-08-28T11:20:54.988Z,1.20
2022-08-28T11:23:30.085Z,1.50
2022-08-28T11:26:02.010Z,1.38
2022-08-28T11:28:34.262Z,1.15
2022-08-28T11:31:00.789Z,1.70
2022-08-28T11:33:38.794Z,1.17
2022-08-28T11:36:32.634Z,1.30
2022-08-28T11:39:05.991Z,1.23
2022-08-28T11:41:34.058Z,0.95
2022-08-28T11:44:09.827Z,1.52
2022-08-28T11:46:39.869Z,1.60
2022-08-28T11:49:26.382Z,1.60
2022-08-28T11:52:17.645Z,1.33
2022-08-28T11:55:04.415Z,1.10
2022-08-28T11:57:48.919Z,1.35
2022-08-28T12:00:39.604Z,1.10
2022-08-28T12:03:31.302Z,1.35
2022-08-28T12:06:00.242Z,1.40
2022-08-28T12:08:45.389Z,2.55
2022-08-28T12:11:40.833Z,1.33
2022-08-28T12:14:29.092Z,1.20
2022-08-28T12:16:58.541Z,1.40
2022-08-28T12:19:41.216Z,1.17
2022-08-28T12:22:22.758Z,1.20
2022-08-28T12:24:54.618Z,1.50
2022-08-28T12:27:21.330Z,1.47
2022-08-28T12:29:55.023Z,1.30
2022-08-28T12:32:36.487Z,1.30
2022-08-28T12:35:02.923Z,1.25
2022-08-28T12:37:52.264Z,1.35
2022-08-28T12:40:24.768Z,1.33
2022-08-28T12:43:02.348Z,1.10
2022-08-28T12:45:37.879Z,1.30
2022-08-28T12:48:21.192Z,1.35
2022-08-28T12:50:48.303Z,1.20
2022-08-28T12:53:17.984Z,1.43
2022-08-28T12:55:46.666Z,1.20
2022-08-28T12:58:35.173Z,1.30
2022-08-28T13:01:13.695Z,1.10
2022-08-28T13:03:49.429Z,0.95
2022-08-28T13:06:24.907Z,0.90
2022-08-28T13:09:07.616Z,1.50
2022-08-28T13:11:37.371Z,0.90
2022-08-28T13:14:05.586Z,1.13
2022-08-28T13:16:40.741Z,0.85
2022-08-28T13:19:07.289Z,1.33
2022-08-28T13:21:37.239Z,1.00
2022-08-28T13:24:22.058Z,0.90
2022-08-28T13:27:08.151Z,1.10
2022-08-28T13:29:36.242Z,1.17
2022-08-28T13:32:16.000Z,1.10
2022-08-28T13:35:01.777Z,1.27
2022-08-28T13:37:54.683Z,0.95
2022-08-28T13:40:55.647Z,0.90
2022-08-28T13:43:12.901Z,1.00
2022-08-28T13:45:42.908Z,0.87
2022-08-28T13:48:12.600Z,0.90
2022-08-28T13:50:41.722Z,0.90
2022-08-28T13:53:08.377Z,0.90
2022-08-28T13:55:35.312Z,0.68
2022-08-28T13:58:02.015Z,0.53
2022-08-28T14:00:31.712Z,0.85
2022-08-28T14:03:16.535Z,0.70
2022-08-28T14:05:44.533Z,0.70
2022-08-28T14:08:11.058Z,1.08
2022-08-28T14:10:37.560Z,1.00
2022-08-28T14:13:04.035Z,1.55
2022-08-28T14:15:30.581Z,1.27
2022-08-28T14:17:57.856Z,1.15
2022-08-28T14:20:24.316Z,0.80
2022-08-28T14:22:50.865Z,1.10
2022-08-28T14:25:17.409Z,1.27
2022-08-28T14:27:43.941Z,1.17
2022-08-28T14:30:11.557Z,1.30
2022-08-28T14:32:38.346Z,1.30
2022-08-28T14:35:05.849Z,1.30
2022-08-28T14:37:33.215Z,1.25
2022-08-28T14:39:59.985Z,1.90
2022-08-28T14:42:26.973Z,1.38
2022-08-28T14:44:53.930Z,1.50
2022-08-28T14:47:21.030Z,1.33
2022-08-28T14:49:47.786Z,1.40
2022-08-28T14:52:14.683Z,1.20
2022-08-28T14:54:41.212Z,1.30
2022-08-28T14:57:07.880Z,1.50
2022-08-28T14:59:34.515Z,1.53
2022-08-28T15:02:02.066Z,1.40
2022-08-28T15:04:34.569Z,1.40
2022-08-28T15:07:02.518Z,1.40
2022-08-28T15:09:29.354Z,1.65
2022-08-28T15:11:56.104Z,2.50
2022-08-28T15:14:22.890Z,1.52
2022-08-28T15:16:49.557Z,2.20
2022-08-28T15:19:18.057Z,1.73
2022-08-28T15:21:47.789Z,1.50
2022-08-28T15:24:16.013Z,1.80
2022-08-28T15:26:43.170Z,1.77
2022-08-28T15:29:11.841Z,1.70
2022-08-28T15:31:39.858Z,1.45
2022-08-28T15:34:18.328Z,1.50
2022-08-28T15:36:54.807Z,1.60
2022-08-28T15:39:42.807Z,1.58
2022-08-28T15:42:10.340Z,1.50
2022-08-28T15:44:37.349Z,1.58
2022-08-28T15:47:05.016Z,1.50
2022-08-28T15:49:38.808Z,1.53
2022-08-28T15:52:11.633Z,1.50
2022-08-28T15:54:38.387Z,1.42
2022-08-28T15:57:05.122Z,1.02
2022-08-28T15:59:39.943Z,1.67
2022-08-28T16:02:18.079Z,1.40
2022-08-28T16:04:44.693Z,1.65
2022-08-28T16:07:11.194Z,1.85
2022-08-28T16:09:37.848Z,1.67
2022-08-28T16:12:04.714Z,1.40
2022-08-28T16:14:32.806Z,1.50
2022-08-28T16:16:59.565Z,1.55
2022-08-28T16:19:32.866Z,1.38
2022-08-28T16:22:00.225Z,1.60
2022-08-28T16:24:26.715Z,1.67
2022-08-28T16:26:53.351Z,1.97
2022-08-28T16:29:19.922Z,1.42
2022-08-28T16:31:47.953Z,2.08
2022-08-28T16:34:14.991Z,2.33
2022-08-28T16:36:48.134Z,1.73
2022-08-28T16:39:14.755Z,1.80
2022-08-28T16:41:42.067Z,1.40
2022-08-28T16:44:09.124Z,1.50
2022-08-28T16:46:35.722Z,1.40
2022-08-28T16:49:02.531Z,1.65
2022-08-28T16:51:29.727Z,1.57
2022-08-28T16:53:56.509Z,1.40
2022-08-28T16:56:26.625Z,1.50
2022-08-28T16:58:53.456Z,1.50
2022-08-28T17:01:22.048Z,1.70
2022-08-28T17:03:52.374Z,1.37
2022-08-28T17:06:23.730Z,1.63
2022-08-28T17:08:55.879Z,1.73
2022-08-28T17:11:24.462Z,1.60
2022-08-28T17:13:50.937Z,1.70
2022-08-28T17:16:19.138Z,1.30
2022-08-28T17:18:47.388Z,1.55
2022-08-28T17:21:36.301Z,1.83
2022-08-28T17:24:03.075Z,1.58
2022-08-28T17:26:29.614Z,1.25
2022-08-28T17:28:56.118Z,1.50
2022-08-28T17:31:22.645Z,1.55
2022-08-28T17:33:49.429Z,1.50
2022-08-28T17:36:32.576Z,1.60
2022-08-28T17:39:02.259Z,1.73
2022-08-28T17:41:28.776Z,1.50
2022-08-28T17:43:55.254Z,1.92
2022-08-28T17:46:22.174Z,1.60
2022-08-28T17:48:54.398Z,2.35
2022-08-28T17:51:41.985Z,1.60
2022-08-28T17:54:18.816Z,1.80
2022-08-28T17:56:46.299Z,2.28
2022-08-28T17:59:13.930Z,1.50
2022-08-28T18:01:42.049Z,1.60
2022-08-28T18:04:09.045Z,1.85
2022-08-28T18:06:35.805Z,2.00
2022-08-28T18:09:02.377Z,1.80
2022-08-28T18:11:28.998Z,1.65
2022-08-28T18:13:55.573Z,1.67
2022-08-28T18:16:22.127Z,1.80
2022-08-28T18:18:48.706Z,1.83
2022-08-28T18:21:15.370Z,1.92
2022-08-28T18:23:42.059Z,2.03
2022-08-28T18:26:09.005Z,2.00
2022-08-28T18:28:35.862Z,1.75
2022-08-28T18:31:05.646Z,2.13
2022-08-28T18:33:32.616Z,2.10
2022-08-28T18:35:59.333Z,2.10
2022-08-28T18:38:28.428Z,2.13
2022-08-28T18:40:55.369Z,1.88
2022-08-28T18:43:22.453Z,1.60
2022-08-28T18:45:49.395Z,1.98
2022-08-28T18:48:16.499Z,1.70
2022-08-28T18:50:46.314Z,2.20
2022-08-28T18:53:15.008Z,1.80
2022-08-28T18:55:41.618Z,2.10
2022-08-28T18:58:08.104Z,2.60
2022-08-28T19:00:38.171Z,2.10
2022-08-28T19:03:05.818Z,2.50
2022-08-28T19:05:33.626Z,2.55
2022-08-28T19:08:00.250Z,2.07
2022-08-28T19:10:34.158Z,2.08
2022-08-28T19:13:01.498Z,2.35
2022-08-28T19:15:28.603Z,2.28
2022-08-28T19:17:55.430Z,2.20
2022-08-28T19:20:21.997Z,2.30
2022-08-28T19:22:48.937Z,2.28
2022-08-28T19:25:27.698Z,2.30
2022-08-28T19:27:59.748Z,2.45
2022-08-28T19:30:29.069Z,2.42
2022-08-28T19:32:55.653Z,2.10
2022-08-28T19:35:24.170Z,2.20
2022-08-28T19:37:54.529Z,2.15
2022-08-28T19:40:22.216Z,2.92
2022-08-28T19:42:50.079Z,2.20
2022-08-28T19:45:17.694Z,2.30
2022-08-28T19:47:44.250Z,2.40
2022-08-28T19:50:12.597Z,2.70
2022-08-28T19:52:39.717Z,2.42
2022-08-28T19:55:07.890Z,2.63
2022-08-28T19:57:35.362Z,2.47
2022-08-28T20:00:03.525Z,2.60
2022-08-28T20:02:30.126Z,3.30
2022-08-28T20:04:56.721Z,3.00
2022-08-28T20:07:24.763Z,2.80
2022-08-28T20:09:51.984Z,2.40
2022-08-28T20:12:18.657Z,3.10
2022-08-28T20:14:45.587Z,2.63
2022-08-28T20:17:12.184Z,2.22
2022-08-28T20:19:39.082Z,2.60
2022-08-28T20:22:05.842Z,3.20
2022-08-28T20:24:32.402Z,3.22
2022-08-28T20:26:59.008Z,3.00
2022-08-28T20:29:25.569Z,2.70
2022-08-28T20:31:52.828Z,2.75
2022-08-28T20:34:20.345Z,2.70
2022-08-28T20:36:47.771Z,3.05
2022-08-28T20:39:14.820Z,2.35
2022-08-28T20:41:42.938Z,2.70
2022-08-28T20:44:13.122Z,2.70
2022-08-28T20:46:42.140Z,2.70
2022-08-28T20:49:11.181Z,2.50
2022-08-28T20:51:53.334Z,2.53
2022-08-28T20:54:36.925Z,3.28
2022-08-28T20:57:09.725Z,3.28
2022-08-28T20:59:40.165Z,3.37
2022-08-28T21:02:10.277Z,3.70
2022-08-28T21:04:38.825Z,3.63
2022-08-28T21:07:05.828Z,3.60
2022-08-28T21:10:04.560Z,3.58
2022-08-28T21:12:19.845Z,3.40
2022-08-28T21:14:51.495Z,3.53
2022-08-28T21:17:20.817Z,3.47
2022-08-28T21:19:57.258Z,4.47
2022-08-28T21:22:23.791Z,3.95
2022-08-28T21:24:50.302Z,3.63
2022-08-28T21:27:18.558Z,3.22
2022-08-28T21:29:45.870Z,3.58
2022-08-28T21:32:13.063Z,3.80
2022-08-28T21:34:39.746Z,3.35
2022-08-28T21:37:06.507Z,3.20
2022-08-28T21:39:33.352Z,3.00
2022-08-28T21:41:59.833Z,3.80
2022-08-28T21:44:26.415Z,3.13
2022-08-28T21:46:52.953Z,3.13
2022-08-28T21:49:19.695Z,3.33
2022-08-28T21:51:46.150Z,3.00
2022-08-28T21:54:13.226Z,3.10
2022-08-28T21:56:40.223Z,3.22
2022-08-28T21:59:06.714Z,3.63
2022-08-28T22:01:33.380Z,3.30
2022-08-28T22:03:59.931Z,3.53
2022-08-28T22:06:26.878Z,3.58
2022-08-28T22:08:54.561Z,3.30
2022-08-28T22:11:24.946Z,3.50
2022-08-28T22:13:52.290Z,3.87
2022-08-28T22:16:19.063Z,3.92
2022-08-28T22:18:45.652Z,3.47
2022-08-28T22:21:37.515Z,3.72
2022-08-28T22:24:05.241Z,3.28
2022-08-28T22:26:31.771Z,3.57
2022-08-28T22:28:58.627Z,3.00
2022-08-28T22:31:25.324Z,3.75
2022-08-28T22:33:52.444Z,3.28
2022-08-28T22:36:20.324Z,3.53
2022-08-28T22:38:52.977Z,4.07
2022-08-28T22:41:20.229Z,3.70
2022-08-28T22:43:50.944Z,3.22
2022-08-28T22:46:20.552Z,3.90
2022-08-28T22:48:47.473Z,3.83
2022-08-28T22:51:18.283Z,3.77
2022-08-28T22:53:45.643Z,3.38
2022-08-28T22:56:12.720Z,3.40
2022-08-28T22:58:39.699Z,3.63
2022-08-28T23:01:11.465Z,3.42
2022-08-28T23:03:38.875Z,4.10
2022-08-28T23:06:05.873Z,4.35
2022-08-28T23:08:34.121Z,3.40
2022-08-28T23:11:01.271Z,3.55
2022-08-28T23:13:29.548Z,3.90
2022-08-28T23:15:56.102Z,3.50
2022-08-28T23:18:22.598Z,3.92
2022-08-28T23:20:50.668Z,4.30
2022-08-28T23:23:18.905Z,3.40
2022-08-28T23:25:45.580Z,5.57
2022-08-28T23:28:12.306Z,3.40
2022-08-28T23:30:41.213Z,4.28
2022-08-28T23:33:24.011Z,3.80
2022-08-28T23:35:51.575Z,4.22
2022-08-28T23:38:18.221Z,3.60
2022-08-28T23:40:44.790Z,3.70
2022-08-28T23:43:11.805Z,4.10
2022-08-28T23:45:41.774Z,4.10
2022-08-28T23:48:08.530Z,3.83
2022-08-28T23:50:35.717Z,4.00
2022-08-28T23:53:04.125Z,4.17
2022-08-28T23:55:31.002Z,4.47
2022-08-28T23:58:00.124Z,4.97
